Terminal Aerodrome Forecast
Issued by NWS

Home | Current Version | Previous Version | Text Only | Print | Product List | Glossary On
Versions: 1 2 3 4 5 6 7 8 9 10 11 12 13 14 15 16 17 18 19 20
000
FTUS41 KBOX 280824 AAB
TAFACK
TAF AMD
KACK 280824Z 2808/2906 22012KT P6SM FEW050 SCT250 WS020/24045KT
     FM280900 23015G23KT 4SM BR VCTS BKN070CB
     FM281300 24015KT P6SM BKN090
     FM290100 24012KT 2SM BR SCT250
     FM290500 24010KT 1SM BR SCT250=

USA.gov is the U.S. government's official web portal to all federal, state and local government web resources and services.